sensor_id;sensor_type;location;lat;lon;timestamp;P1;durP1;ratioP1;P2;durP2;ratioP2
51006;SDS011;37034;47.886;-3.904;2023-02-14T00:00:40;25.20;;;11.45;;
51006;SDS011;37034;47.886;-3.904;2023-02-14T00:03:07;30.15;;;12.88;;
51006;SDS011;37034;47.886;-3.904;2023-02-14T00:05:32;32.83;;;12.75;;
51006;SDS011;37034;47.886;-3.904;2023-02-14T00:08:01;31.13;;;13.02;;
51006;SDS011;37034;47.886;-3.904;2023-02-14T00:10:35;24.42;;;11.30;;
51006;SDS011;37034;47.886;-3.904;2023-02-14T00:13:01;30.70;;;12.80;;
51006;SDS011;37034;47.886;-3.904;2023-02-14T00:15:27;25.50;;;11.65;;
51006;SDS011;37034;47.886;-3.904;2023-02-14T00:17:54;25.80;;;10.93;;
51006;SDS011;37034;47.886;-3.904;2023-02-14T00:20:23;21.75;;;10.65;;
51006;SDS011;37034;47.886;-3.904;2023-02-14T00:25:16;24.83;;;10.93;;
51006;SDS011;37034;47.886;-3.904;2023-02-14T00:27:42;20.58;;;10.25;;
51006;SDS011;37034;47.886;-3.904;2023-02-14T00:30:09;20.65;;;10.38;;
51006;SDS011;37034;47.886;-3.904;2023-02-14T00:32:40;19.70;;;10.45;;
51006;SDS011;37034;47.886;-3.904;2023-02-14T00:35:06;20.23;;;10.55;;
51006;SDS011;37034;47.886;-3.904;2023-02-14T00:37:38;20.58;;;11.88;;
51006;SDS011;37034;47.886;-3.904;2023-02-14T00:40:04;21.92;;;10.68;;
51006;SDS011;37034;47.886;-3.904;2023-02-14T00:44:56;20.77;;;11.40;;
51006;SDS011;37034;47.886;-3.904;2023-02-14T00:47:22;21.70;;;12.23;;
51006;SDS011;37034;47.886;-3.904;2023-02-14T00:49:48;20.63;;;11.93;;
51006;SDS011;37034;47.886;-3.904;2023-02-14T00:52:13;20.83;;;9.37;;
51006;SDS011;37034;47.886;-3.904;2023-02-14T00:54:39;20.87;;;12.00;;
51006;SDS011;37034;47.886;-3.904;2023-02-14T00:57:04;22.03;;;13.43;;
51006;SDS011;37034;47.886;-3.904;2023-02-14T00:59:30;28.83;;;13.13;;
51006;SDS011;37034;47.886;-3.904;2023-02-14T01:01:56;25.87;;;13.30;;
51006;SDS011;37034;47.886;-3.904;2023-02-14T01:04:21;25.97;;;13.43;;
51006;SDS011;37034;47.886;-3.904;2023-02-14T01:06:47;25.93;;;13.43;;
51006;SDS011;37034;47.886;-3.904;2023-02-14T01:09:13;26.03;;;14.33;;
51006;SDS011;37034;47.886;-3.904;2023-02-14T01:11:38;28.60;;;13.00;;
51006;SDS011;37034;47.886;-3.904;2023-02-14T01:14:04;26.13;;;12.57;;
51006;SDS011;37034;47.886;-3.904;2023-02-14T01:16:30;31.10;;;15.80;;
51006;SDS011;37034;47.886;-3.904;2023-02-14T01:18:57;32.53;;;14.50;;
51006;SDS011;37034;47.886;-3.904;2023-02-14T01:21:25;28.92;;;14.02;;
51006;SDS011;37034;47.886;-3.904;2023-02-14T01:23:53;35.15;;;14.77;;
51006;SDS011;37034;47.886;-3.904;2023-02-14T01:26:21;29.15;;;14.27;;
51006;SDS011;37034;47.886;-3.904;2023-02-14T01:28:48;29.00;;;14.77;;
51006;SDS011;37034;47.886;-3.904;2023-02-14T01:31:15;26.35;;;15.02;;
51006;SDS011;37034;47.886;-3.904;2023-02-14T01:33:44;32.60;;;14.65;;
51006;SDS011;37034;47.886;-3.904;2023-02-14T01:36:18;26.00;;;13.20;;
51006;SDS011;37034;47.886;-3.904;2023-02-14T01:38:46;24.65;;;13.65;;
51006;SDS011;37034;47.886;-3.904;2023-02-14T01:41:14;28.17;;;13.63;;
51006;SDS011;37034;47.886;-3.904;2023-02-14T01:46:52;32.63;;;14.30;;
51006;SDS011;37034;47.886;-3.904;2023-02-14T01:49:27;28.55;;;13.93;;
51006;SDS011;37034;47.886;-3.904;2023-02-14T01:52:00;29.50;;;15.05;;
51006;SDS011;37034;47.886;-3.904;2023-02-14T01:54:31;26.88;;;14.48;;
51006;SDS011;37034;47.886;-3.904;2023-02-14T01:57:01;32.05;;;16.05;;
51006;SDS011;37034;47.886;-3.904;2023-02-14T01:59:31;28.80;;;14.43;;
51006;SDS011;37034;47.886;-3.904;2023-02-14T02:02:03;31.63;;;15.40;;
51006;SDS011;37034;47.886;-3.904;2023-02-14T02:04:34;29.85;;;14.70;;
51006;SDS011;37034;47.886;-3.904;2023-02-14T02:07:04;29.20;;;15.00;;
51006;SDS011;37034;47.886;-3.904;2023-02-14T02:09:37;30.05;;;15.68;;
51006;SDS011;37034;47.886;-3.904;2023-02-14T02:12:13;27.95;;;14.32;;
51006;SDS011;37034;47.886;-3.904;2023-02-14T02:14:38;22.70;;;11.10;;
51006;SDS011;37034;47.886;-3.904;2023-02-14T02:33:24;34.38;;;16.35;;
51006;SDS011;37034;47.886;-3.904;2023-02-14T02:47:28;35.15;;;17.77;;
51006;SDS011;37034;47.886;-3.904;2023-02-14T02:49:57;33.78;;;16.90;;
51006;SDS011;37034;47.886;-3.904;2023-02-14T02:58:38;28.17;;;16.65;;
51006;SDS011;37034;47.886;-3.904;2023-02-14T03:01:13;37.50;;;20.08;;
51006;SDS011;37034;47.886;-3.904;2023-02-14T03:03:46;32.50;;;17.92;;
51006;SDS011;37034;47.886;-3.904;2023-02-14T03:06:36;49.17;;;17.15;;
51006;SDS011;37034;47.886;-3.904;2023-02-14T03:12:01;33.38;;;17.35;;
51006;SDS011;37034;47.886;-3.904;2023-02-14T03:14:38;26.42;;;16.55;;
51006;SDS011;37034;47.886;-3.904;2023-02-14T03:17:17;70.45;;;17.45;;
51006;SDS011;37034;47.886;-3.904;2023-02-14T03:19:59;23.60;;;15.10;;
51006;SDS011;37034;47.886;-3.904;2023-02-14T03:28:25;27.60;;;15.82;;
51006;SDS011;37034;47.886;-3.904;2023-02-14T03:31:11;31.10;;;15.68;;
51006;SDS011;37034;47.886;-3.904;2023-02-14T03:36:39;24.40;;;15.32;;
51006;SDS011;37034;47.886;-3.904;2023-02-14T03:41:43;25.13;;;15.85;;
51006;SDS011;37034;47.886;-3.904;2023-02-14T03:44:13;24.50;;;14.48;;
51006;SDS011;37034;47.886;-3.904;2023-02-14T03:46:48;27.98;;;16.00;;
51006;SDS011;37034;47.886;-3.904;2023-02-14T03:49:20;22.55;;;14.30;;
51006;SDS011;37034;47.886;-3.904;2023-02-14T03:51:53;26.13;;;14.73;;
51006;SDS011;37034;47.886;-3.904;2023-02-14T03:54:21;42.38;;;15.00;;
51006;SDS011;37034;47.886;-3.904;2023-02-14T03:56:56;22.65;;;15.43;;
51006;SDS011;37034;47.886;-3.904;2023-02-14T03:59:45;24.83;;;14.98;;
51006;SDS011;37034;47.886;-3.904;2023-02-14T04:02:13;21.83;;;14.15;;
51006;SDS011;37034;47.886;-3.904;2023-02-14T04:04:48;23.75;;;14.82;;
51006;SDS011;37034;47.886;-3.904;2023-02-14T04:07:18;23.77;;;14.60;;
51006;SDS011;37034;47.886;-3.904;2023-02-14T04:09:46;24.25;;;15.45;;
51006;SDS011;37034;47.886;-3.904;2023-02-14T04:12:13;21.95;;;13.13;;
51006;SDS011;37034;47.886;-3.904;2023-02-14T04:14:39;23.33;;;14.38;;
51006;SDS011;37034;47.886;-3.904;2023-02-14T04:17:05;23.67;;;14.98;;
51006;SDS011;37034;47.886;-3.904;2023-02-14T04:19:50;21.52;;;13.85;;
51006;SDS011;37034;47.886;-3.904;2023-02-14T04:22:15;20.07;;;13.47;;
51006;SDS011;37034;47.886;-3.904;2023-02-14T04:24:41;20.85;;;14.10;;
51006;SDS011;37034;47.886;-3.904;2023-02-14T04:27:07;18.07;;;13.23;;
51006;SDS011;37034;47.886;-3.904;2023-02-14T04:32:09;25.02;;;15.02;;
51006;SDS011;37034;47.886;-3.904;2023-02-14T04:34:37;27.40;;;14.73;;
51006;SDS011;37034;47.886;-3.904;2023-02-14T04:37:03;22.27;;;15.45;;
51006;SDS011;37034;47.886;-3.904;2023-02-14T04:39:29;23.38;;;14.98;;
51006;SDS011;37034;47.886;-3.904;2023-02-14T04:41:55;23.88;;;15.52;;
51006;SDS011;37034;47.886;-3.904;2023-02-14T04:44:21;24.90;;;15.30;;
51006;SDS011;37034;47.886;-3.904;2023-02-14T04:46:47;20.83;;;14.27;;
51006;SDS011;37034;47.886;-3.904;2023-02-14T04:49:13;22.47;;;14.77;;
51006;SDS011;37034;47.886;-3.904;2023-02-14T04:51:38;22.73;;;14.95;;
51006;SDS011;37034;47.886;-3.904;2023-02-14T04:54:04;23.83;;;14.93;;
51006;SDS011;37034;47.886;-3.904;2023-02-14T04:56:30;25.97;;;16.50;;
51006;SDS011;37034;47.886;-3.904;2023-02-14T04:58:56;23.30;;;16.70;;
51006;SDS011;37034;47.886;-3.904;2023-02-14T05:01:21;23.50;;;14.70;;
51006;SDS011;37034;47.886;-3.904;2023-02-14T05:03:47;21.25;;;15.63;;
51006;SDS011;37034;47.886;-3.904;2023-02-14T05:06:13;23.17;;;15.68;;
51006;SDS011;37034;47.886;-3.904;2023-02-14T05:08:39;24.03;;;15.20;;
51006;SDS011;37034;47.886;-3.904;2023-02-14T05:11:04;22.53;;;15.10;;
51006;SDS011;37034;47.886;-3.904;2023-02-14T05:13:30;21.23;;;14.87;;
51006;SDS011;37034;47.886;-3.904;2023-02-14T05:15:56;21.70;;;14.03;;
51006;SDS011;37034;47.886;-3.904;2023-02-14T05:18:22;22.17;;;14.50;;
51006;SDS011;37034;47.886;-3.904;2023-02-14T05:20:52;20.08;;;13.13;;
51006;SDS011;37034;47.886;-3.904;2023-02-14T05:23:18;23.13;;;14.25;;
51006;SDS011;37034;47.886;-3.904;2023-02-14T05:25:48;22.38;;;13.73;;
51006;SDS011;37034;47.886;-3.904;2023-02-14T05:28:15;18.55;;;12.35;;
51006;SDS011;37034;47.886;-3.904;2023-02-14T05:33:07;21.40;;;12.43;;
51006;SDS011;37034;47.886;-3.904;2023-02-14T05:35:33;20.40;;;12.53;;
51006;SDS011;37034;47.886;-3.904;2023-02-14T05:37:59;20.73;;;13.13;;
51006;SDS011;37034;47.886;-3.904;2023-02-14T05:40:25;16.30;;;9.10;;
51006;SDS011;37034;47.886;-3.904;2023-02-14T05:45:17;21.50;;;12.73;;
51006;SDS011;37034;47.886;-3.904;2023-02-14T05:47:43;20.93;;;12.13;;
51006;SDS011;37034;47.886;-3.904;2023-02-14T05:50:08;14.30;;;9.38;;
51006;SDS011;37034;47.886;-3.904;2023-02-14T05:52:35;18.40;;;12.20;;
51006;SDS011;37034;47.886;-3.904;2023-02-14T05:55:02;18.20;;;11.48;;
51006;SDS011;37034;47.886;-3.904;2023-02-14T05:57:28;18.30;;;11.88;;
51006;SDS011;37034;47.886;-3.904;2023-02-14T05:59:53;17.40;;;9.50;;
51006;SDS011;37034;47.886;-3.904;2023-02-14T06:02:19;18.57;;;12.00;;
51006;SDS011;37034;47.886;-3.904;2023-02-14T06:04:45;20.70;;;12.67;;
51006;SDS011;37034;47.886;-3.904;2023-02-14T06:07:10;17.40;;;11.57;;
51006;SDS011;37034;47.886;-3.904;2023-02-14T06:09:36;18.63;;;12.27;;
51006;SDS011;37034;47.886;-3.904;2023-02-14T06:12:01;13.33;;;8.70;;
51006;SDS011;37034;47.886;-3.904;2023-02-14T06:14:27;15.90;;;9.20;;
51006;SDS011;37034;47.886;-3.904;2023-02-14T06:16:53;19.97;;;12.00;;
51006;SDS011;37034;47.886;-3.904;2023-02-14T06:19:18;17.80;;;11.93;;
51006;SDS011;37034;47.886;-3.904;2023-02-14T06:21:45;19.80;;;12.50;;
51006;SDS011;37034;47.886;-3.904;2023-02-14T06:24:11;20.90;;;12.65;;
51006;SDS011;37034;47.886;-3.904;2023-02-14T06:26:37;21.50;;;11.65;;
51006;SDS011;37034;47.886;-3.904;2023-02-14T06:29:03;16.30;;;8.43;;
51006;SDS011;37034;47.886;-3.904;2023-02-14T06:31:29;17.63;;;10.70;;
51006;SDS011;37034;47.886;-3.904;2023-02-14T06:33:54;17.50;;;11.80;;
51006;SDS011;37034;47.886;-3.904;2023-02-14T06:36:20;21.50;;;11.87;;
51006;SDS011;37034;47.886;-3.904;2023-02-14T06:38:47;20.83;;;11.82;;
51006;SDS011;37034;47.886;-3.904;2023-02-14T06:41:13;19.08;;;11.82;;
51006;SDS011;37034;47.886;-3.904;2023-02-14T06:43:41;20.38;;;12.23;;
51006;SDS011;37034;47.886;-3.904;2023-02-14T06:46:09;17.88;;;11.13;;
51006;SDS011;37034;47.886;-3.904;2023-02-14T06:48:38;13.32;;;8.38;;
51006;SDS011;37034;47.886;-3.904;2023-02-14T06:51:03;18.98;;;10.93;;
51006;SDS011;37034;47.886;-3.904;2023-02-14T06:53:32;18.48;;;11.90;;
51006;SDS011;37034;47.886;-3.904;2023-02-14T06:55:59;19.08;;;11.48;;
51006;SDS011;37034;47.886;-3.904;2023-02-14T06:58:24;17.38;;;11.80;;
51006;SDS011;37034;47.886;-3.904;2023-02-14T07:00:50;20.90;;;11.10;;
51006;SDS011;37034;47.886;-3.904;2023-02-14T07:03:21;19.40;;;11.70;;
51006;SDS011;37034;47.886;-3.904;2023-02-14T07:05:47;19.35;;;11.82;;
51006;SDS011;37034;47.886;-3.904;2023-02-14T07:08:18;18.63;;;11.27;;
51006;SDS011;37034;47.886;-3.904;2023-02-14T07:10:45;17.08;;;11.23;;
51006;SDS011;37034;47.886;-3.904;2023-02-14T07:13:11;19.65;;;11.40;;
51006;SDS011;37034;47.886;-3.904;2023-02-14T07:15:37;16.75;;;9.27;;
51006;SDS011;37034;47.886;-3.904;2023-02-14T07:18:02;16.20;;;10.63;;
51006;SDS011;37034;47.886;-3.904;2023-02-14T07:20:34;20.35;;;11.45;;
51006;SDS011;37034;47.886;-3.904;2023-02-14T07:23:00;13.50;;;7.93;;
51006;SDS011;37034;47.886;-3.904;2023-02-14T07:25:25;18.13;;;10.87;;
51006;SDS011;37034;47.886;-3.904;2023-02-14T07:27:52;20.42;;;11.18;;
51006;SDS011;37034;47.886;-3.904;2023-02-14T07:30:26;18.20;;;11.43;;
51006;SDS011;37034;47.886;-3.904;2023-02-14T07:32:52;17.33;;;10.68;;
51006;SDS011;37034;47.886;-3.904;2023-02-14T07:35:18;12.97;;;8.10;;
51006;SDS011;37034;47.886;-3.904;2023-02-14T07:37:43;17.60;;;10.63;;
51006;SDS011;37034;47.886;-3.904;2023-02-14T07:40:09;17.20;;;10.80;;
51006;SDS011;37034;47.886;-3.904;2023-02-14T07:42:35;27.40;;;10.55;;
51006;SDS011;37034;47.886;-3.904;2023-02-14T07:45:01;18.90;;;10.70;;
51006;SDS011;37034;47.886;-3.904;2023-02-14T07:47:28;20.92;;;11.88;;
51006;SDS011;37034;47.886;-3.904;2023-02-14T07:49:54;20.87;;;12.07;;
51006;SDS011;37034;47.886;-3.904;2023-02-14T07:52:19;17.57;;;10.53;;
51006;SDS011;37034;47.886;-3.904;2023-02-14T07:54:45;21.93;;;10.83;;
51006;SDS011;37034;47.886;-3.904;2023-02-14T07:57:11;17.63;;;10.10;;
51006;SDS011;37034;47.886;-3.904;2023-02-14T07:59:36;14.87;;;7.83;;
51006;SDS011;37034;47.886;-3.904;2023-02-14T08:02:02;14.33;;;8.33;;
51006;SDS011;37034;47.886;-3.904;2023-02-14T08:04:28;19.60;;;10.97;;
51006;SDS011;37034;47.886;-3.904;2023-02-14T08:06:53;18.83;;;10.70;;
51006;SDS011;37034;47.886;-3.904;2023-02-14T08:09:19;19.83;;;10.73;;
51006;SDS011;37034;47.886;-3.904;2023-02-14T08:11:52;17.17;;;10.57;;
51006;SDS011;37034;47.886;-3.904;2023-02-14T08:14:37;16.00;;;11.02;;
51006;SDS011;37034;47.886;-3.904;2023-02-14T08:17:03;16.52;;;10.50;;
51006;SDS011;37034;47.886;-3.904;2023-02-14T08:19:31;17.48;;;10.77;;
51006;SDS011;37034;47.886;-3.904;2023-02-14T08:21:57;17.58;;;9.80;;
51006;SDS011;37034;47.886;-3.904;2023-02-14T08:24:23;19.07;;;10.73;;
51006;SDS011;37034;47.886;-3.904;2023-02-14T08:26:49;16.83;;;10.17;;
51006;SDS011;37034;47.886;-3.904;2023-02-14T08:29:14;12.20;;;7.47;;
51006;SDS011;37034;47.886;-3.904;2023-02-14T08:31:40;18.27;;;10.00;;
51006;SDS011;37034;47.886;-3.904;2023-02-14T08:34:06;16.93;;;9.40;;
51006;SDS011;37034;47.886;-3.904;2023-02-14T08:36:32;19.10;;;10.00;;
51006;SDS011;37034;47.886;-3.904;2023-02-14T08:38:59;18.55;;;10.10;;
51006;SDS011;37034;47.886;-3.904;2023-02-14T08:41:25;16.85;;;10.70;;
51006;SDS011;37034;47.886;-3.904;2023-02-14T08:43:51;16.50;;;10.57;;
51006;SDS011;37034;47.886;-3.904;2023-02-14T08:46:16;15.97;;;9.83;;
51006;SDS011;37034;47.886;-3.904;2023-02-14T08:48:42;20.03;;;10.47;;
51006;SDS011;37034;47.886;-3.904;2023-02-14T08:51:09;19.25;;;10.23;;
51006;SDS011;37034;47.886;-3.904;2023-02-14T08:53:37;16.83;;;9.50;;
51006;SDS011;37034;47.886;-3.904;2023-02-14T08:56:08;19.92;;;9.77;;
51006;SDS011;37034;47.886;-3.904;2023-02-14T08:58:35;16.80;;;10.15;;
51006;SDS011;37034;47.886;-3.904;2023-02-14T09:01:06;17.20;;;10.18;;
51006;SDS011;37034;47.886;-3.904;2023-02-14T09:03:36;18.42;;;10.15;;
51006;SDS011;37034;47.886;-3.904;2023-02-14T09:06:03;21.27;;;10.68;;
51006;SDS011;37034;47.886;-3.904;2023-02-14T09:08:33;15.98;;;9.75;;
51006;SDS011;37034;47.886;-3.904;2023-02-14T09:13:33;16.45;;;9.45;;
51006;SDS011;37034;47.886;-3.904;2023-02-14T09:16:02;17.73;;;10.17;;
51006;SDS011;37034;47.886;-3.904;2023-02-14T09:18:29;19.73;;;9.73;;
51006;SDS011;37034;47.886;-3.904;2023-02-14T09:20:54;15.13;;;9.77;;
51006;SDS011;37034;47.886;-3.904;2023-02-14T09:23:20;20.00;;;10.73;;
51006;SDS011;37034;47.886;-3.904;2023-02-14T09:25:49;21.77;;;12.33;;
51006;SDS011;37034;47.886;-3.904;2023-02-14T09:28:14;19.52;;;11.50;;
51006;SDS011;37034;47.886;-3.904;2023-02-14T09:30:40;18.67;;;11.77;;
51006;SDS011;37034;47.886;-3.904;2023-02-14T09:33:06;19.90;;;10.63;;
51006;SDS011;37034;47.886;-3.904;2023-02-14T09:35:31;20.07;;;10.70;;
51006;SDS011;37034;47.886;-3.904;2023-02-14T09:37:57;21.97;;;10.83;;
51006;SDS011;37034;47.886;-3.904;2023-02-14T09:40:42;18.38;;;10.73;;
51006;SDS011;37034;47.886;-3.904;2023-02-14T09:43:19;15.82;;;9.23;;
51006;SDS011;37034;47.886;-3.904;2023-02-14T09:45:55;15.18;;;8.68;;
51006;SDS011;37034;47.886;-3.904;2023-02-14T09:48:32;17.65;;;9.18;;
51006;SDS011;37034;47.886;-3.904;2023-02-14T09:51:21;19.73;;;9.98;;
51006;SDS011;37034;47.886;-3.904;2023-02-14T09:53:51;20.75;;;8.63;;
51006;SDS011;37034;47.886;-3.904;2023-02-14T09:56:36;16.58;;;8.63;;
51006;SDS011;37034;47.886;-3.904;2023-02-14T09:59:28;16.75;;;9.05;;
51006;SDS011;37034;47.886;-3.904;2023-02-14T10:05:10;18.60;;;8.63;;
51006;SDS011;37034;47.886;-3.904;2023-02-14T10:07:48;15.95;;;8.63;;
51006;SDS011;37034;47.886;-3.904;2023-02-14T10:10:39;13.60;;;8.52;;
51006;SDS011;37034;47.886;-3.904;2023-02-14T10:13:17;20.35;;;9.18;;
51006;SDS011;37034;47.886;-3.904;2023-02-14T10:15:58;19.65;;;9.80;;
51006;SDS011;37034;47.886;-3.904;2023-02-14T10:21:47;21.58;;;11.32;;
51006;SDS011;37034;47.886;-3.904;2023-02-14T10:24:27;19.08;;;9.77;;
51006;SDS011;37034;47.886;-3.904;2023-02-14T10:27:10;21.95;;;10.52;;
51006;SDS011;37034;47.886;-3.904;2023-02-14T10:29:57;18.27;;;10.13;;
51006;SDS011;37034;47.886;-3.904;2023-02-14T10:32:28;19.67;;;10.73;;
51006;SDS011;37034;47.886;-3.904;2023-02-14T10:35:04;17.15;;;10.57;;
51006;SDS011;37034;47.886;-3.904;2023-02-14T10:48:52;19.17;;;11.63;;
51006;SDS011;37034;47.886;-3.904;2023-02-14T10:51:46;23.65;;;12.18;;
51006;SDS011;37034;47.886;-3.904;2023-02-14T10:54:23;21.20;;;10.90;;
51006;SDS011;37034;47.886;-3.904;2023-02-14T11:00:01;20.83;;;10.90;;
51006;SDS011;37034;47.886;-3.904;2023-02-14T11:02:52;20.58;;;11.32;;
51006;SDS011;37034;47.886;-3.904;2023-02-14T11:05:35;19.92;;;11.00;;
51006;SDS011;37034;47.886;-3.904;2023-02-14T11:11:09;17.70;;;11.35;;
51006;SDS011;37034;47.886;-3.904;2023-02-14T11:13:50;19.98;;;10.48;;
51006;SDS011;37034;47.886;-3.904;2023-02-14T11:16:30;17.92;;;10.80;;
51006;SDS011;37034;47.886;-3.904;2023-02-14T11:21:58;15.90;;;9.80;;
51006;SDS011;37034;47.886;-3.904;2023-02-14T11:26:54;20.20;;;10.63;;
51006;SDS011;37034;47.886;-3.904;2023-02-14T11:32:06;17.35;;;9.95;;
51006;SDS011;37034;47.886;-3.904;2023-02-14T11:34:53;15.87;;;9.97;;
51006;SDS011;37034;47.886;-3.904;2023-02-14T11:37:35;15.63;;;9.95;;
51006;SDS011;37034;47.886;-3.904;2023-02-14T11:40:06;19.33;;;9.80;;
51006;SDS011;37034;47.886;-3.904;2023-02-14T11:42:51;18.08;;;10.07;;
51006;SDS011;37034;47.886;-3.904;2023-02-14T11:48:16;23.02;;;10.48;;
51006;SDS011;37034;47.886;-3.904;2023-02-14T11:50:55;15.82;;;9.25;;
51006;SDS011;37034;47.886;-3.904;2023-02-14T11:53:36;17.38;;;9.60;;
51006;SDS011;37034;47.886;-3.904;2023-02-14T15:37:58;22.80;;;7.43;;
51006;SDS011;37034;47.886;-3.904;2023-02-14T15:40:27;20.00;;;7.30;;
51006;SDS011;37034;47.886;-3.904;2023-02-14T15:42:55;21.27;;;7.32;;
51006;SDS011;37034;47.886;-3.904;2023-02-14T15:45:43;17.67;;;6.53;;
51006;SDS011;37034;47.886;-3.904;2023-02-14T15:50:54;21.80;;;6.97;;
51006;SDS011;37034;47.886;-3.904;2023-02-14T15:56:21;16.35;;;7.32;;
51006;SDS011;37034;47.886;-3.904;2023-02-14T16:02:19;18.00;;;7.22;;
51006;SDS011;37034;47.886;-3.904;2023-02-14T16:05:23;16.70;;;7.30;;
51006;SDS011;37034;47.886;-3.904;2023-02-14T16:08:03;17.58;;;7.35;;
51006;SDS011;37034;47.886;-3.904;2023-02-14T16:11:03;20.77;;;7.68;;
51006;SDS011;37034;47.886;-3.904;2023-02-14T16:13:36;23.33;;;7.50;;
51006;SDS011;37034;47.886;-3.904;2023-02-14T16:16:09;21.05;;;7.47;;
51006;SDS011;37034;47.886;-3.904;2023-02-14T16:18:40;22.48;;;8.70;;
51006;SDS011;37034;47.886;-3.904;2023-02-14T16:21:14;22.98;;;8.18;;
51006;SDS011;37034;47.886;-3.904;2023-02-14T16:26:44;21.38;;;8.88;;
51006;SDS011;37034;47.886;-3.904;2023-02-14T16:29:42;18.23;;;7.97;;
51006;SDS011;37034;47.886;-3.904;2023-02-14T16:32:17;19.15;;;8.65;;
51006;SDS011;37034;47.886;-3.904;2023-02-14T16:34:50;22.40;;;7.97;;
51006;SDS011;37034;47.886;-3.904;2023-02-14T16:40:30;23.00;;;8.38;;
51006;SDS011;37034;47.886;-3.904;2023-02-14T16:42:59;26.03;;;8.90;;
51006;SDS011;37034;47.886;-3.904;2023-02-14T16:45:32;24.45;;;8.82;;
51006;SDS011;37034;47.886;-3.904;2023-02-14T16:47:57;28.65;;;9.15;;
51006;SDS011;37034;47.886;-3.904;2023-02-14T16:50:23;33.50;;;9.37;;
51006;SDS011;37034;47.886;-3.904;2023-02-14T16:58:50;23.10;;;8.20;;
51006;SDS011;37034;47.886;-3.904;2023-02-14T17:01:18;21.35;;;7.63;;
51006;SDS011;37034;47.886;-3.904;2023-02-14T17:03:49;22.08;;;7.60;;
51006;SDS011;37034;47.886;-3.904;2023-02-14T17:06:16;19.73;;;8.23;;
51006;SDS011;37034;47.886;-3.904;2023-02-14T17:08:45;25.77;;;8.90;;
51006;SDS011;37034;47.886;-3.904;2023-02-14T17:11:12;18.15;;;7.15;;
51006;SDS011;37034;47.886;-3.904;2023-02-14T17:13:39;21.88;;;7.57;;
51006;SDS011;37034;47.886;-3.904;2023-02-14T17:16:11;22.17;;;8.32;;
51006;SDS011;37034;47.886;-3.904;2023-02-14T17:18:39;19.48;;;8.80;;
51006;SDS011;37034;47.886;-3.904;2023-02-14T17:21:20;22.25;;;8.55;;
51006;SDS011;37034;47.886;-3.904;2023-02-14T17:23:47;20.38;;;8.50;;
51006;SDS011;37034;47.886;-3.904;2023-02-14T17:26:12;19.43;;;8.73;;
51006;SDS011;37034;47.886;-3.904;2023-02-14T17:28:38;21.23;;;8.37;;
51006;SDS011;37034;47.886;-3.904;2023-02-14T17:31:04;22.90;;;8.38;;
51006;SDS011;37034;47.886;-3.904;2023-02-14T17:33:31;18.97;;;9.00;;
51006;SDS011;37034;47.886;-3.904;2023-02-14T17:36:07;15.77;;;7.55;;
51006;SDS011;37034;47.886;-3.904;2023-02-14T17:38:35;18.00;;;8.25;;
51006;SDS011;37034;47.886;-3.904;2023-02-14T17:44:44;20.50;;;8.90;;
51006;SDS011;37034;47.886;-3.904;2023-02-14T17:47:10;24.08;;;8.65;;
51006;SDS011;37034;47.886;-3.904;2023-02-14T17:49:58;25.90;;;9.07;;
51006;SDS011;37034;47.886;-3.904;2023-02-14T17:52:25;22.10;;;7.45;;
51006;SDS011;37034;47.886;-3.904;2023-02-14T17:54:54;21.38;;;8.68;;
51006;SDS011;37034;47.886;-3.904;2023-02-14T17:57:20;19.98;;;8.43;;
51006;SDS011;37034;47.886;-3.904;2023-02-14T17:59:46;22.10;;;8.97;;
51006;SDS011;37034;47.886;-3.904;2023-02-14T18:02:14;23.67;;;9.40;;
51006;SDS011;37034;47.886;-3.904;2023-02-14T18:04:52;23.67;;;9.15;;
51006;SDS011;37034;47.886;-3.904;2023-02-14T18:07:21;20.73;;;8.75;;
51006;SDS011;37034;47.886;-3.904;2023-02-14T18:10:05;30.35;;;9.77;;
51006;SDS011;37034;47.886;-3.904;2023-02-14T18:12:31;21.60;;;9.27;;
51006;SDS011;37034;47.886;-3.904;2023-02-14T18:14:58;28.63;;;9.40;;
51006;SDS011;37034;47.886;-3.904;2023-02-14T18:17:24;21.67;;;8.88;;
51006;SDS011;37034;47.886;-3.904;2023-02-14T18:19:49;23.00;;;8.37;;
51006;SDS011;37034;47.886;-3.904;2023-02-14T18:22:15;22.13;;;8.73;;
51006;SDS011;37034;47.886;-3.904;2023-02-14T18:24:41;29.03;;;8.87;;
51006;SDS011;37034;47.886;-3.904;2023-02-14T18:27:06;20.03;;;8.83;;
51006;SDS011;37034;47.886;-3.904;2023-02-14T18:29:32;25.07;;;9.70;;
51006;SDS011;37034;47.886;-3.904;2023-02-14T18:31:59;21.95;;;9.23;;
51006;SDS011;37034;47.886;-3.904;2023-02-14T18:34:26;23.07;;;9.07;;
51006;SDS011;37034;47.886;-3.904;2023-02-14T18:36:52;21.77;;;9.65;;
51006;SDS011;37034;47.886;-3.904;2023-02-14T18:39:18;23.30;;;8.70;;
51006;SDS011;37034;47.886;-3.904;2023-02-14T18:41:44;18.08;;;8.55;;
51006;SDS011;37034;47.886;-3.904;2023-02-14T18:44:11;18.60;;;8.48;;
51006;SDS011;37034;47.886;-3.904;2023-02-14T18:46:37;24.33;;;8.48;;
51006;SDS011;37034;47.886;-3.904;2023-02-14T18:49:04;26.60;;;9.50;;
51006;SDS011;37034;47.886;-3.904;2023-02-14T18:51:47;27.13;;;9.57;;
51006;SDS011;37034;47.886;-3.904;2023-02-14T18:54:22;17.67;;;8.30;;
51006;SDS011;37034;47.886;-3.904;2023-02-14T18:56:48;20.67;;;8.30;;
51006;SDS011;37034;47.886;-3.904;2023-02-14T18:59:14;22.85;;;8.95;;
51006;SDS011;37034;47.886;-3.904;2023-02-14T19:04:27;19.90;;;8.85;;
51006;SDS011;37034;47.886;-3.904;2023-02-14T19:06:57;22.15;;;8.80;;
51006;SDS011;37034;47.886;-3.904;2023-02-14T19:09:37;19.43;;;8.20;;
51006;SDS011;37034;47.886;-3.904;2023-02-14T19:12:07;20.00;;;8.77;;
51006;SDS011;37034;47.886;-3.904;2023-02-14T19:14:36;23.02;;;8.40;;
51006;SDS011;37034;47.886;-3.904;2023-02-14T19:17:02;20.73;;;8.50;;
51006;SDS011;37034;47.886;-3.904;2023-02-14T19:19:32;20.13;;;9.10;;
51006;SDS011;37034;47.886;-3.904;2023-02-14T19:22:04;18.33;;;8.88;;
51006;SDS011;37034;47.886;-3.904;2023-02-14T19:27:55;25.92;;;8.65;;
51006;SDS011;37034;47.886;-3.904;2023-02-14T19:31:19;24.88;;;8.35;;
51006;SDS011;37034;47.886;-3.904;2023-02-14T19:33:52;20.13;;;7.97;;
51006;SDS011;37034;47.886;-3.904;2023-02-14T19:48:30;25.13;;;7.80;;
51006;SDS011;37034;47.886;-3.904;2023-02-14T19:50:56;26.10;;;8.80;;
51006;SDS011;37034;47.886;-3.904;2023-02-14T19:53:30;26.33;;;8.18;;
51006;SDS011;37034;47.886;-3.904;2023-02-14T19:56:29;22.25;;;8.25;;
51006;SDS011;37034;47.886;-3.904;2023-02-14T19:58:59;26.35;;;8.00;;
51006;SDS011;37034;47.886;-3.904;2023-02-14T20:01:52;23.70;;;7.70;;
51006;SDS011;37034;47.886;-3.904;2023-02-14T20:04:41;31.55;;;8.52;;
51006;SDS011;37034;47.886;-3.904;2023-02-14T20:07:18;23.48;;;8.07;;
51006;SDS011;37034;47.886;-3.904;2023-02-14T20:09:59;24.80;;;8.18;;
51006;SDS011;37034;47.886;-3.904;2023-02-14T20:12:32;19.33;;;7.75;;
51006;SDS011;37034;47.886;-3.904;2023-02-14T20:15:38;21.85;;;7.85;;
51006;SDS011;37034;47.886;-3.904;2023-02-14T20:18:33;22.80;;;8.18;;
51006;SDS011;37034;47.886;-3.904;2023-02-14T20:21:52;23.98;;;7.82;;
51006;SDS011;37034;47.886;-3.904;2023-02-14T20:24:45;20.92;;;8.57;;
51006;SDS011;37034;47.886;-3.904;2023-02-14T20:30:47;18.90;;;7.50;;
51006;SDS011;37034;47.886;-3.904;2023-02-14T20:33:41;25.67;;;8.15;;
51006;SDS011;37034;47.886;-3.904;2023-02-14T20:36:12;27.48;;;8.75;;
51006;SDS011;37034;47.886;-3.904;2023-02-14T20:38:40;20.08;;;7.85;;
51006;SDS011;37034;47.886;-3.904;2023-02-14T20:41:29;21.15;;;7.85;;
51006;SDS011;37034;47.886;-3.904;2023-02-14T20:44:17;22.60;;;7.47;;